Bryantville, Massachusetts
Current Conditions -  °F | °C
As of 5:50 AM on Wednesday 22 Oct 2014 (Local Time) from KGHG Reporting Station
Haze Haze  
Wind Chill: 14°   Ceiling: 400
Heat Index: 14°   Visibility: 3mi
Dew Point: 14°   Wind: 13mph
Humidity: 100%   Direction: 50°NE
Pressure: 29.98"   Gusts: 16mph
Location:  42.04°N, 70.84°W
Report Text: KGHG 220950Z AUTO 05011G14KT 3SM BR OVC004 14/14 A2998 RMK AO2
Loading
Personal Weather Stations






























Interactive Weather Map
Tropical Storm Tracking
New forecast layout! Learn more

10-Day Weather Forecast

Advertisements
Track Severe Weather on mobile